sensor_id;sensor_type;location;lat;lon;timestamp;P1;durP1;ratioP1;P2;durP2;ratioP2
43118;SDS011;28729;49.838;8.650;2023-11-21T00:03:34;6.75;;;1.50;;
43118;SDS011;28729;49.838;8.650;2023-11-21T00:11:39;6.22;;;1.50;;
43118;SDS011;28729;49.838;8.650;2023-11-21T00:15:42;5.10;;;1.40;;
43118;SDS011;28729;49.838;8.650;2023-11-21T00:19:44;7.97;;;1.63;;
43118;SDS011;28729;49.838;8.650;2023-11-21T00:23:45;7.32;;;1.95;;
43118;SDS011;28729;49.838;8.650;2023-11-21T00:27:47;6.28;;;1.85;;
43118;SDS011;28729;49.838;8.650;2023-11-21T00:31:49;8.13;;;1.95;;
43118;SDS011;28729;49.838;8.650;2023-11-21T00:35:51;6.70;;;1.77;;
43118;SDS011;28729;49.838;8.650;2023-11-21T00:39:53;6.20;;;1.77;;
43118;SDS011;28729;49.838;8.650;2023-11-21T00:43:55;5.72;;;2.00;;
43118;SDS011;28729;49.838;8.650;2023-11-21T00:47:57;4.63;;;1.92;;
43118;SDS011;28729;49.838;8.650;2023-11-21T00:52:00;8.57;;;1.60;;
43118;SDS011;28729;49.838;8.650;2023-11-21T00:56:03;4.57;;;1.77;;
43118;SDS011;28729;49.838;8.650;2023-11-21T01:00:06;7.65;;;1.70;;
43118;SDS011;28729;49.838;8.650;2023-11-21T01:08:20;4.55;;;2.00;;
43118;SDS011;28729;49.838;8.650;2023-11-21T01:12:24;7.93;;;1.95;;
43118;SDS011;28729;49.838;8.650;2023-11-21T01:16:27;6.55;;;2.50;;
43118;SDS011;28729;49.838;8.650;2023-11-21T01:24:32;5.73;;;2.90;;
43118;SDS011;28729;49.838;8.650;2023-11-21T01:28:34;8.93;;;3.10;;
43118;SDS011;28729;49.838;8.650;2023-11-21T01:32:36;6.60;;;3.53;;
43118;SDS011;28729;49.838;8.650;2023-11-21T01:36:39;9.50;;;3.60;;
43118;SDS011;28729;49.838;8.650;2023-11-21T01:40:41;8.93;;;3.97;;
43118;SDS011;28729;49.838;8.650;2023-11-21T01:44:43;11.57;;;4.25;;
43118;SDS011;28729;49.838;8.650;2023-11-21T01:48:46;10.35;;;3.90;;
43118;SDS011;28729;49.838;8.650;2023-11-21T01:52:50;7.90;;;3.45;;
43118;SDS011;28729;49.838;8.650;2023-11-21T01:56:52;7.80;;;3.42;;
43118;SDS011;28729;49.838;8.650;2023-11-21T02:00:54;11.07;;;3.70;;
43118;SDS011;28729;49.838;8.650;2023-11-21T02:04:58;11.07;;;3.83;;
43118;SDS011;28729;49.838;8.650;2023-11-21T02:08:59;5.93;;;2.93;;
43118;SDS011;28729;49.838;8.650;2023-11-21T02:13:01;11.73;;;3.92;;
43118;SDS011;28729;49.838;8.650;2023-11-21T02:17:04;7.55;;;3.63;;
43118;SDS011;28729;49.838;8.650;2023-11-21T02:21:10;11.15;;;4.53;;
43118;SDS011;28729;49.838;8.650;2023-11-21T02:25:12;12.87;;;4.07;;
43118;SDS011;28729;49.838;8.650;2023-11-21T02:29:17;11.63;;;4.15;;
43118;SDS011;28729;49.838;8.650;2023-11-21T02:33:20;9.98;;;4.13;;
43118;SDS011;28729;49.838;8.650;2023-11-21T02:37:22;9.95;;;3.95;;
43118;SDS011;28729;49.838;8.650;2023-11-21T02:41:25;9.73;;;4.65;;
43118;SDS011;28729;49.838;8.650;2023-11-21T02:45:27;9.35;;;4.80;;
43118;SDS011;28729;49.838;8.650;2023-11-21T02:49:29;14.80;;;4.97;;
43118;SDS011;28729;49.838;8.650;2023-11-21T02:53:32;10.05;;;4.30;;
43118;SDS011;28729;49.838;8.650;2023-11-21T02:57:35;10.60;;;4.60;;
43118;SDS011;28729;49.838;8.650;2023-11-21T03:01:38;7.05;;;3.85;;
43118;SDS011;28729;49.838;8.650;2023-11-21T03:05:40;9.27;;;4.13;;
43118;SDS011;28729;49.838;8.650;2023-11-21T03:09:43;15.95;;;5.07;;
43118;SDS011;28729;49.838;8.650;2023-11-21T03:13:45;6.82;;;2.83;;
43118;SDS011;28729;49.838;8.650;2023-11-21T03:17:53;13.70;;;5.53;;
43118;SDS011;28729;49.838;8.650;2023-11-21T03:21:57;10.85;;;5.25;;
43118;SDS011;28729;49.838;8.650;2023-11-21T03:34:10;10.80;;;5.63;;
43118;SDS011;28729;49.838;8.650;2023-11-21T03:38:18;11.20;;;5.60;;
43118;SDS011;28729;49.838;8.650;2023-11-21T03:42:20;12.33;;;5.10;;
43118;SDS011;28729;49.838;8.650;2023-11-21T03:46:25;9.75;;;5.25;;
43118;SDS011;28729;49.838;8.650;2023-11-21T03:50:28;13.77;;;6.23;;
43118;SDS011;28729;49.838;8.650;2023-11-21T03:54:34;11.57;;;5.47;;
43118;SDS011;28729;49.838;8.650;2023-11-21T03:58:37;12.80;;;4.95;;
43118;SDS011;28729;49.838;8.650;2023-11-21T04:02:39;11.32;;;5.20;;
43118;SDS011;28729;49.838;8.650;2023-11-21T04:06:42;10.90;;;5.38;;
43118;SDS011;28729;49.838;8.650;2023-11-21T04:10:45;10.10;;;5.40;;
43118;SDS011;28729;49.838;8.650;2023-11-21T04:14:47;12.38;;;5.07;;
43118;SDS011;28729;49.838;8.650;2023-11-21T04:18:50;10.52;;;5.88;;
43118;SDS011;28729;49.838;8.650;2023-11-21T04:22:52;13.27;;;6.63;;
43118;SDS011;28729;49.838;8.650;2023-11-21T04:26:54;14.85;;;5.68;;
43118;SDS011;28729;49.838;8.650;2023-11-21T04:30:56;11.65;;;5.32;;
43118;SDS011;28729;49.838;8.650;2023-11-21T04:34:58;11.30;;;5.25;;
43118;SDS011;28729;49.838;8.650;2023-11-21T04:39:00;11.55;;;5.80;;
43118;SDS011;28729;49.838;8.650;2023-11-21T04:43:02;13.10;;;5.80;;
43118;SDS011;28729;49.838;8.650;2023-11-21T04:47:05;11.30;;;6.05;;
43118;SDS011;28729;49.838;8.650;2023-11-21T04:51:07;13.47;;;6.30;;
43118;SDS011;28729;49.838;8.650;2023-11-21T04:55:09;17.50;;;8.52;;
43118;SDS011;28729;49.838;8.650;2023-11-21T04:59:12;17.60;;;7.72;;
43118;SDS011;28729;49.838;8.650;2023-11-21T05:03:14;24.50;;;7.85;;
43118;SDS011;28729;49.838;8.650;2023-11-21T05:07:16;20.30;;;8.95;;
43118;SDS011;28729;49.838;8.650;2023-11-21T05:11:27;20.98;;;9.80;;
43118;SDS011;28729;49.838;8.650;2023-11-21T05:15:30;22.47;;;9.80;;
43118;SDS011;28729;49.838;8.650;2023-11-21T05:19:32;23.00;;;9.95;;
43118;SDS011;28729;49.838;8.650;2023-11-21T05:23:34;22.13;;;9.43;;
43118;SDS011;28729;49.838;8.650;2023-11-21T05:27:36;21.67;;;9.57;;
43118;SDS011;28729;49.838;8.650;2023-11-21T05:31:38;20.38;;;10.38;;
43118;SDS011;28729;49.838;8.650;2023-11-21T05:35:40;22.10;;;9.67;;
43118;SDS011;28729;49.838;8.650;2023-11-21T05:39:41;19.42;;;8.93;;
43118;SDS011;28729;49.838;8.650;2023-11-21T05:43:44;21.48;;;10.30;;
43118;SDS011;28729;49.838;8.650;2023-11-21T05:47:46;19.00;;;9.30;;
43118;SDS011;28729;49.838;8.650;2023-11-21T05:51:48;15.98;;;7.80;;
43118;SDS011;28729;49.838;8.650;2023-11-21T05:55:50;12.80;;;7.03;;
43118;SDS011;28729;49.838;8.650;2023-11-21T05:59:52;10.67;;;5.83;;
43118;SDS011;28729;49.838;8.650;2023-11-21T06:03:54;7.53;;;3.00;;
43118;SDS011;28729;49.838;8.650;2023-11-21T06:07:56;5.22;;;1.73;;
43118;SDS011;28729;49.838;8.650;2023-11-21T06:12:02;5.53;;;1.92;;
43118;SDS011;28729;49.838;8.650;2023-11-21T06:16:06;2.90;;;1.50;;
43118;SDS011;28729;49.838;8.650;2023-11-21T06:20:09;2.05;;;1.10;;
43118;SDS011;28729;49.838;8.650;2023-11-21T06:24:16;3.13;;;1.00;;
43118;SDS011;28729;49.838;8.650;2023-11-21T06:28:18;1.30;;;0.77;;
43118;SDS011;28729;49.838;8.650;2023-11-21T06:32:20;3.53;;;0.90;;
43118;SDS011;28729;49.838;8.650;2023-11-21T06:36:24;1.55;;;0.90;;
43118;SDS011;28729;49.838;8.650;2023-11-21T06:40:25;4.10;;;0.88;;
43118;SDS011;28729;49.838;8.650;2023-11-21T06:44:27;2.47;;;1.40;;
43118;SDS011;28729;49.838;8.650;2023-11-21T06:48:29;5.28;;;1.60;;
43118;SDS011;28729;49.838;8.650;2023-11-21T06:56:34;3.87;;;1.30;;
43118;SDS011;28729;49.838;8.650;2023-11-21T07:00:37;2.47;;;1.23;;
43118;SDS011;28729;49.838;8.650;2023-11-21T07:04:45;2.50;;;1.20;;
43118;SDS011;28729;49.838;8.650;2023-11-21T07:08:47;2.22;;;1.00;;
43118;SDS011;28729;49.838;8.650;2023-11-21T07:12:49;2.13;;;1.05;;
43118;SDS011;28729;49.838;8.650;2023-11-21T07:16:52;2.70;;;1.17;;
43118;SDS011;28729;49.838;8.650;2023-11-21T07:20:55;1.83;;;1.00;;
43118;SDS011;28729;49.838;8.650;2023-11-21T07:24:56;3.72;;;1.15;;
43118;SDS011;28729;49.838;8.650;2023-11-21T07:28:58;3.53;;;1.08;;
43118;SDS011;28729;49.838;8.650;2023-11-21T07:33:00;2.67;;;1.25;;
43118;SDS011;28729;49.838;8.650;2023-11-21T07:37:03;3.30;;;1.53;;
43118;SDS011;28729;49.838;8.650;2023-11-21T07:45:26;5.63;;;2.40;;
43118;SDS011;28729;49.838;8.650;2023-11-21T07:49:29;7.40;;;3.72;;
43118;SDS011;28729;49.838;8.650;2023-11-21T07:53:31;8.15;;;3.50;;
43118;SDS011;28729;49.838;8.650;2023-11-21T07:57:34;13.10;;;6.47;;
43118;SDS011;28729;49.838;8.650;2023-11-21T08:01:35;10.10;;;5.03;;
43118;SDS011;28729;49.838;8.650;2023-11-21T08:05:37;9.98;;;4.43;;
43118;SDS011;28729;49.838;8.650;2023-11-21T08:09:39;13.70;;;5.40;;
43118;SDS011;28729;49.838;8.650;2023-11-21T08:13:41;15.67;;;5.50;;
43118;SDS011;28729;49.838;8.650;2023-11-21T08:17:43;12.77;;;5.50;;
43118;SDS011;28729;49.838;8.650;2023-11-21T08:21:45;21.83;;;9.30;;
43118;SDS011;28729;49.838;8.650;2023-11-21T08:25:47;15.30;;;6.07;;
43118;SDS011;28729;49.838;8.650;2023-11-21T08:29:49;12.40;;;5.43;;
43118;SDS011;28729;49.838;8.650;2023-11-21T08:33:52;14.60;;;5.97;;
43118;SDS011;28729;49.838;8.650;2023-11-21T08:37:57;13.68;;;6.38;;
43118;SDS011;28729;49.838;8.650;2023-11-21T08:41:59;14.03;;;6.87;;
43118;SDS011;28729;49.838;8.650;2023-11-21T08:46:07;14.57;;;5.57;;
43118;SDS011;28729;49.838;8.650;2023-11-21T08:50:12;14.25;;;7.47;;
43118;SDS011;28729;49.838;8.650;2023-11-21T08:54:14;9.82;;;5.20;;
43118;SDS011;28729;49.838;8.650;2023-11-21T08:58:18;11.70;;;6.45;;
43118;SDS011;28729;49.838;8.650;2023-11-21T09:02:22;10.23;;;5.10;;
43118;SDS011;28729;49.838;8.650;2023-11-21T09:06:28;8.93;;;4.63;;
43118;SDS011;28729;49.838;8.650;2023-11-21T09:10:30;8.50;;;4.93;;
43118;SDS011;28729;49.838;8.650;2023-11-21T09:14:32;12.33;;;5.30;;
43118;SDS011;28729;49.838;8.650;2023-11-21T09:18:35;11.70;;;5.30;;
43118;SDS011;28729;49.838;8.650;2023-11-21T09:22:37;12.95;;;5.20;;
43118;SDS011;28729;49.838;8.650;2023-11-21T09:26:39;9.93;;;4.53;;
43118;SDS011;28729;49.838;8.650;2023-11-21T09:30:41;9.32;;;4.35;;
43118;SDS011;28729;49.838;8.650;2023-11-21T09:34:43;12.77;;;5.60;;
43118;SDS011;28729;49.838;8.650;2023-11-21T09:38:45;17.53;;;6.77;;
43118;SDS011;28729;49.838;8.650;2023-11-21T09:42:54;11.73;;;5.50;;
43118;SDS011;28729;49.838;8.650;2023-11-21T09:46:59;10.07;;;4.70;;
43118;SDS011;28729;49.838;8.650;2023-11-21T09:51:01;11.23;;;4.30;;
43118;SDS011;28729;49.838;8.650;2023-11-21T09:55:06;7.90;;;3.55;;
43118;SDS011;28729;49.838;8.650;2023-11-21T09:59:10;6.22;;;2.83;;
43118;SDS011;28729;49.838;8.650;2023-11-21T10:03:17;14.07;;;6.38;;
43118;SDS011;28729;49.838;8.650;2023-11-21T10:07:19;15.33;;;7.37;;
43118;SDS011;28729;49.838;8.650;2023-11-21T10:11:25;8.93;;;4.28;;
43118;SDS011;28729;49.838;8.650;2023-11-21T10:15:29;8.80;;;4.10;;
43118;SDS011;28729;49.838;8.650;2023-11-21T10:19:32;12.82;;;3.65;;
43118;SDS011;28729;49.838;8.650;2023-11-21T10:23:35;6.57;;;3.42;;
43118;SDS011;28729;49.838;8.650;2023-11-21T10:27:37;12.45;;;5.93;;
43118;SDS011;28729;49.838;8.650;2023-11-21T10:31:42;7.10;;;3.97;;
43118;SDS011;28729;49.838;8.650;2023-11-21T10:39:59;11.40;;;5.55;;
43118;SDS011;28729;49.838;8.650;2023-11-21T10:44:02;7.90;;;3.78;;
43118;SDS011;28729;49.838;8.650;2023-11-21T10:48:09;13.23;;;5.60;;
43118;SDS011;28729;49.838;8.650;2023-11-21T10:52:12;10.10;;;4.47;;
43118;SDS011;28729;49.838;8.650;2023-11-21T10:56:21;8.10;;;4.10;;
43118;SDS011;28729;49.838;8.650;2023-11-21T11:00:26;10.38;;;3.92;;
43118;SDS011;28729;49.838;8.650;2023-11-21T11:04:35;8.88;;;4.18;;
43118;SDS011;28729;49.838;8.650;2023-11-21T11:08:41;8.07;;;3.70;;
43118;SDS011;28729;49.838;8.650;2023-11-21T11:12:44;11.18;;;4.57;;
43118;SDS011;28729;49.838;8.650;2023-11-21T11:16:49;7.25;;;3.83;;
43118;SDS011;28729;49.838;8.650;2023-11-21T11:20:51;10.00;;;4.32;;
43118;SDS011;28729;49.838;8.650;2023-11-21T11:29:31;6.45;;;3.00;;
43118;SDS011;28729;49.838;8.650;2023-11-21T11:38:01;8.20;;;3.38;;
43118;SDS011;28729;49.838;8.650;2023-11-21T11:42:06;7.53;;;3.05;;
43118;SDS011;28729;49.838;8.650;2023-11-21T11:46:10;10.35;;;4.60;;
43118;SDS011;28729;49.838;8.650;2023-11-21T11:50:17;3.63;;;2.85;;
43118;SDS011;28729;49.838;8.650;2023-11-21T11:54:34;7.93;;;2.95;;
43118;SDS011;28729;49.838;8.650;2023-11-21T11:58:47;7.38;;;3.70;;
43118;SDS011;28729;49.838;8.650;2023-11-21T12:02:51;4.60;;;2.38;;
43118;SDS011;28729;49.838;8.650;2023-11-21T12:06:54;7.70;;;3.20;;
43118;SDS011;28729;49.838;8.650;2023-11-21T12:10:57;5.75;;;2.10;;
43118;SDS011;28729;49.838;8.650;2023-11-21T12:15:01;8.00;;;2.15;;
43118;SDS011;28729;49.838;8.650;2023-11-21T12:19:06;6.32;;;2.35;;
43118;SDS011;28729;49.838;8.650;2023-11-21T12:23:08;6.70;;;2.30;;
43118;SDS011;28729;49.838;8.650;2023-11-21T12:27:11;4.13;;;2.20;;
43118;SDS011;28729;49.838;8.650;2023-11-21T12:31:16;5.68;;;2.53;;
43118;SDS011;28729;49.838;8.650;2023-11-21T12:35:26;5.65;;;2.70;;
43118;SDS011;28729;49.838;8.650;2023-11-21T12:39:30;6.32;;;2.33;;
43118;SDS011;28729;49.838;8.650;2023-11-21T12:43:32;7.93;;;2.75;;
43118;SDS011;28729;49.838;8.650;2023-11-21T12:47:36;5.50;;;2.40;;
43118;SDS011;28729;49.838;8.650;2023-11-21T12:51:37;8.30;;;2.92;;
43118;SDS011;28729;49.838;8.650;2023-11-21T12:55:39;8.85;;;2.90;;
43118;SDS011;28729;49.838;8.650;2023-11-21T12:59:45;6.85;;;2.50;;
43118;SDS011;28729;49.838;8.650;2023-11-21T13:03:47;9.00;;;3.40;;
43118;SDS011;28729;49.838;8.650;2023-11-21T13:07:50;6.90;;;2.78;;
43118;SDS011;28729;49.838;8.650;2023-11-21T13:11:59;11.18;;;3.55;;
43118;SDS011;28729;49.838;8.650;2023-11-21T13:16:05;9.50;;;3.40;;
43118;SDS011;28729;49.838;8.650;2023-11-21T13:20:08;9.18;;;3.00;;
43118;SDS011;28729;49.838;8.650;2023-11-21T13:24:17;9.27;;;3.15;;
43118;SDS011;28729;49.838;8.650;2023-11-21T13:28:19;11.20;;;3.47;;
43118;SDS011;28729;49.838;8.650;2023-11-21T13:32:25;6.63;;;2.90;;
43118;SDS011;28729;49.838;8.650;2023-11-21T13:36:28;9.43;;;3.23;;
43118;SDS011;28729;49.838;8.650;2023-11-21T13:40:34;11.15;;;3.85;;
43118;SDS011;28729;49.838;8.650;2023-11-21T13:44:44;7.53;;;3.15;;
43118;SDS011;28729;49.838;8.650;2023-11-21T13:48:49;7.50;;;3.53;;
43118;SDS011;28729;49.838;8.650;2023-11-21T13:52:58;8.63;;;3.38;;
43118;SDS011;28729;49.838;8.650;2023-11-21T13:57:05;9.68;;;3.00;;
43118;SDS011;28729;49.838;8.650;2023-11-21T14:01:08;8.00;;;3.03;;
43118;SDS011;28729;49.838;8.650;2023-11-21T14:05:32;5.13;;;3.13;;
43118;SDS011;28729;49.838;8.650;2023-11-21T14:09:36;7.28;;;3.30;;
43118;SDS011;28729;49.838;8.650;2023-11-21T14:13:46;12.48;;;3.70;;
43118;SDS011;28729;49.838;8.650;2023-11-21T14:17:50;11.48;;;3.50;;
43118;SDS011;28729;49.838;8.650;2023-11-21T14:21:55;10.98;;;3.22;;
43118;SDS011;28729;49.838;8.650;2023-11-21T14:25:57;10.33;;;3.77;;
43118;SDS011;28729;49.838;8.650;2023-11-21T14:29:59;9.02;;;2.78;;
43118;SDS011;28729;49.838;8.650;2023-11-21T14:34:01;6.53;;;3.30;;
43118;SDS011;28729;49.838;8.650;2023-11-21T14:38:04;9.77;;;3.00;;
43118;SDS011;28729;49.838;8.650;2023-11-21T14:42:06;7.38;;;3.10;;
43118;SDS011;28729;49.838;8.650;2023-11-21T14:46:09;6.85;;;3.00;;
43118;SDS011;28729;49.838;8.650;2023-11-21T14:50:16;8.65;;;2.90;;
43118;SDS011;28729;49.838;8.650;2023-11-21T14:54:37;4.60;;;2.55;;
43118;SDS011;28729;49.838;8.650;2023-11-21T14:58:42;6.30;;;3.20;;
43118;SDS011;28729;49.838;8.650;2023-11-21T15:02:44;10.60;;;2.97;;
43118;SDS011;28729;49.838;8.650;2023-11-21T15:06:51;7.25;;;2.80;;
43118;SDS011;28729;49.838;8.650;2023-11-21T15:10:55;7.97;;;3.45;;
43118;SDS011;28729;49.838;8.650;2023-11-21T15:14:57;7.53;;;2.63;;
43118;SDS011;28729;49.838;8.650;2023-11-21T15:18:59;7.28;;;2.58;;
43118;SDS011;28729;49.838;8.650;2023-11-21T15:23:01;10.68;;;4.18;;
43118;SDS011;28729;49.838;8.650;2023-11-21T15:27:05;6.25;;;2.60;;
43118;SDS011;28729;49.838;8.650;2023-11-21T15:31:09;6.55;;;3.03;;
43118;SDS011;28729;49.838;8.650;2023-11-21T15:35:11;9.30;;;3.05;;
43118;SDS011;28729;49.838;8.650;2023-11-21T15:39:16;6.28;;;2.83;;
43118;SDS011;28729;49.838;8.650;2023-11-21T15:43:19;6.70;;;2.95;;
43118;SDS011;28729;49.838;8.650;2023-11-21T15:47:21;6.97;;;2.90;;
43118;SDS011;28729;49.838;8.650;2023-11-21T15:51:23;8.13;;;3.17;;
43118;SDS011;28729;49.838;8.650;2023-11-21T15:55:25;10.40;;;3.38;;
43118;SDS011;28729;49.838;8.650;2023-11-21T15:59:27;12.85;;;4.03;;
43118;SDS011;28729;49.838;8.650;2023-11-21T16:03:34;7.65;;;3.78;;
43118;SDS011;28729;49.838;8.650;2023-11-21T16:07:36;8.93;;;3.38;;
43118;SDS011;28729;49.838;8.650;2023-11-21T16:11:40;7.95;;;2.85;;
43118;SDS011;28729;49.838;8.650;2023-11-21T16:15:42;6.23;;;3.33;;
43118;SDS011;28729;49.838;8.650;2023-11-21T16:19:44;9.18;;;3.40;;
43118;SDS011;28729;49.838;8.650;2023-11-21T16:23:47;7.30;;;2.85;;
43118;SDS011;28729;49.838;8.650;2023-11-21T16:27:48;4.53;;;2.45;;
43118;SDS011;28729;49.838;8.650;2023-11-21T16:31:50;6.05;;;2.33;;
43118;SDS011;28729;49.838;8.650;2023-11-21T16:35:54;7.25;;;2.50;;
43118;SDS011;28729;49.838;8.650;2023-11-21T16:44:00;6.43;;;2.00;;
43118;SDS011;28729;49.838;8.650;2023-11-21T16:48:03;5.45;;;2.03;;
43118;SDS011;28729;49.838;8.650;2023-11-21T16:52:05;6.28;;;2.00;;
43118;SDS011;28729;49.838;8.650;2023-11-21T16:56:26;4.97;;;2.50;;
43118;SDS011;28729;49.838;8.650;2023-11-21T17:00:29;6.80;;;2.28;;
43118;SDS011;28729;49.838;8.650;2023-11-21T17:04:31;4.70;;;2.65;;
43118;SDS011;28729;49.838;8.650;2023-11-21T17:08:36;5.78;;;2.92;;
43118;SDS011;28729;49.838;8.650;2023-11-21T17:12:38;4.43;;;2.35;;
43118;SDS011;28729;49.838;8.650;2023-11-21T17:16:40;6.35;;;2.72;;
43118;SDS011;28729;49.838;8.650;2023-11-21T17:20:43;7.13;;;2.95;;
43118;SDS011;28729;49.838;8.650;2023-11-21T17:24:45;22.77;;;10.23;;
43118;SDS011;28729;49.838;8.650;2023-11-21T17:28:47;8.85;;;3.97;;
43118;SDS011;28729;49.838;8.650;2023-11-21T17:32:49;8.43;;;3.53;;
43118;SDS011;28729;49.838;8.650;2023-11-21T17:36:51;7.53;;;4.07;;
43118;SDS011;28729;49.838;8.650;2023-11-21T17:40:52;15.25;;;7.78;;
43118;SDS011;28729;49.838;8.650;2023-11-21T17:44:54;12.87;;;5.73;;
43118;SDS011;28729;49.838;8.650;2023-11-21T17:48:56;13.27;;;5.47;;
43118;SDS011;28729;49.838;8.650;2023-11-21T17:52:58;10.75;;;5.00;;
43118;SDS011;28729;49.838;8.650;2023-11-21T17:57:00;13.55;;;6.82;;
43118;SDS011;28729;49.838;8.650;2023-11-21T18:01:01;23.05;;;10.80;;
43118;SDS011;28729;49.838;8.650;2023-11-21T18:05:04;15.37;;;7.33;;
43118;SDS011;28729;49.838;8.650;2023-11-21T18:09:12;14.18;;;7.22;;
43118;SDS011;28729;49.838;8.650;2023-11-21T18:13:16;18.13;;;9.27;;
43118;SDS011;28729;49.838;8.650;2023-11-21T18:17:18;16.13;;;7.30;;
43118;SDS011;28729;49.838;8.650;2023-11-21T18:21:21;13.27;;;6.38;;
43118;SDS011;28729;49.838;8.650;2023-11-21T18:25:23;18.20;;;8.45;;
43118;SDS011;28729;49.838;8.650;2023-11-21T18:29:24;20.38;;;7.70;;
43118;SDS011;28729;49.838;8.650;2023-11-21T18:33:27;22.73;;;8.55;;
43118;SDS011;28729;49.838;8.650;2023-11-21T18:37:30;18.48;;;8.13;;
43118;SDS011;28729;49.838;8.650;2023-11-21T18:41:32;25.38;;;10.48;;
43118;SDS011;28729;49.838;8.650;2023-11-21T18:45:34;26.65;;;10.23;;
43118;SDS011;28729;49.838;8.650;2023-11-21T18:49:50;24.23;;;11.02;;
43118;SDS011;28729;49.838;8.650;2023-11-21T18:53:59;21.15;;;9.45;;
43118;SDS011;28729;49.838;8.650;2023-11-21T18:58:01;24.58;;;9.15;;
43118;SDS011;28729;49.838;8.650;2023-11-21T19:02:04;20.25;;;9.38;;
43118;SDS011;28729;49.838;8.650;2023-11-21T19:06:14;19.38;;;7.93;;
43118;SDS011;28729;49.838;8.650;2023-11-21T19:10:16;20.40;;;8.90;;
43118;SDS011;28729;49.838;8.650;2023-11-21T19:14:21;23.08;;;8.45;;
43118;SDS011;28729;49.838;8.650;2023-11-21T19:22:25;23.48;;;8.18;;
43118;SDS011;28729;49.838;8.650;2023-11-21T19:26:27;17.92;;;7.90;;
43118;SDS011;28729;49.838;8.650;2023-11-21T19:30:29;14.40;;;6.57;;
43118;SDS011;28729;49.838;8.650;2023-11-21T19:38:36;14.32;;;5.72;;
43118;SDS011;28729;49.838;8.650;2023-11-21T19:42:41;16.05;;;7.00;;
43118;SDS011;28729;49.838;8.650;2023-11-21T19:46:43;8.20;;;4.13;;
43118;SDS011;28729;49.838;8.650;2023-11-21T19:50:44;20.83;;;9.25;;
43118;SDS011;28729;49.838;8.650;2023-11-21T19:54:46;9.52;;;4.22;;
43118;SDS011;28729;49.838;8.650;2023-11-21T19:58:48;9.88;;;5.40;;
43118;SDS011;28729;49.838;8.650;2023-11-21T20:02:51;13.60;;;4.40;;
43118;SDS011;28729;49.838;8.650;2023-11-21T20:06:53;9.07;;;4.67;;
43118;SDS011;28729;49.838;8.650;2023-11-21T20:10:57;9.57;;;5.05;;
43118;SDS011;28729;49.838;8.650;2023-11-21T20:14:59;9.50;;;5.30;;
43118;SDS011;28729;49.838;8.650;2023-11-21T20:19:01;11.00;;;5.50;;
43118;SDS011;28729;49.838;8.650;2023-11-21T20:23:04;10.00;;;4.40;;
43118;SDS011;28729;49.838;8.650;2023-11-21T20:27:06;8.65;;;4.18;;
43118;SDS011;28729;49.838;8.650;2023-11-21T20:31:07;11.73;;;5.78;;
43118;SDS011;28729;49.838;8.650;2023-11-21T20:35:10;9.43;;;5.23;;
43118;SDS011;28729;49.838;8.650;2023-11-21T20:39:12;10.02;;;4.93;;
43118;SDS011;28729;49.838;8.650;2023-11-21T20:43:15;10.82;;;4.78;;
43118;SDS011;28729;49.838;8.650;2023-11-21T20:47:18;12.43;;;6.38;;
43118;SDS011;28729;49.838;8.650;2023-11-21T20:55:23;11.63;;;7.15;;
43118;SDS011;28729;49.838;8.650;2023-11-21T20:59:25;9.83;;;5.43;;
43118;SDS011;28729;49.838;8.650;2023-11-21T21:03:27;11.50;;;5.32;;
43118;SDS011;28729;49.838;8.650;2023-11-21T21:07:29;11.38;;;5.03;;
43118;SDS011;28729;49.838;8.650;2023-11-21T21:11:31;7.10;;;3.47;;
43118;SDS011;28729;49.838;8.650;2023-11-21T21:15:33;9.90;;;4.57;;
43118;SDS011;28729;49.838;8.650;2023-11-21T21:23:39;9.85;;;3.90;;
43118;SDS011;28729;49.838;8.650;2023-11-21T21:27:40;8.30;;;3.88;;
43118;SDS011;28729;49.838;8.650;2023-11-21T21:31:42;10.27;;;4.82;;
43118;SDS011;28729;49.838;8.650;2023-11-21T21:35:44;6.47;;;3.40;;
43118;SDS011;28729;49.838;8.650;2023-11-21T21:39:46;8.00;;;3.72;;
43118;SDS011;28729;49.838;8.650;2023-11-21T21:43:49;8.65;;;4.47;;
43118;SDS011;28729;49.838;8.650;2023-11-21T21:47:51;7.82;;;3.85;;
43118;SDS011;28729;49.838;8.650;2023-11-21T21:51:54;8.03;;;3.60;;
43118;SDS011;28729;49.838;8.650;2023-11-21T21:55:55;7.18;;;3.20;;
43118;SDS011;28729;49.838;8.650;2023-11-21T21:59:58;7.63;;;3.75;;
43118;SDS011;28729;49.838;8.650;2023-11-21T22:03:59;7.38;;;3.53;;
43118;SDS011;28729;49.838;8.650;2023-11-21T22:08:02;8.90;;;2.97;;
43118;SDS011;28729;49.838;8.650;2023-11-21T22:12:04;5.75;;;3.40;;
43118;SDS011;28729;49.838;8.650;2023-11-21T22:16:07;7.22;;;3.28;;
43118;SDS011;28729;49.838;8.650;2023-11-21T22:20:11;7.80;;;3.63;;
43118;SDS011;28729;49.838;8.650;2023-11-21T22:24:13;7.97;;;3.70;;
43118;SDS011;28729;49.838;8.650;2023-11-21T22:28:15;7.25;;;3.22;;
43118;SDS011;28729;49.838;8.650;2023-11-21T22:32:16;6.38;;;3.38;;
43118;SDS011;28729;49.838;8.650;2023-11-21T22:36:19;6.35;;;3.33;;
43118;SDS011;28729;49.838;8.650;2023-11-21T22:40:21;6.82;;;3.40;;
43118;SDS011;28729;49.838;8.650;2023-11-21T22:44:24;7.90;;;4.40;;
43118;SDS011;28729;49.838;8.650;2023-11-21T22:48:26;7.50;;;3.63;;
43118;SDS011;28729;49.838;8.650;2023-11-21T22:52:28;9.45;;;5.20;;
43118;SDS011;28729;49.838;8.650;2023-11-21T22:56:32;7.10;;;4.38;;
43118;SDS011;28729;49.838;8.650;2023-11-21T23:00:35;6.45;;;3.65;;
43118;SDS011;28729;49.838;8.650;2023-11-21T23:04:38;5.78;;;3.30;;
43118;SDS011;28729;49.838;8.650;2023-11-21T23:08:40;7.53;;;4.20;;
43118;SDS011;28729;49.838;8.650;2023-11-21T23:12:43;6.18;;;3.50;;
43118;SDS011;28729;49.838;8.650;2023-11-21T23:16:45;5.90;;;3.53;;
43118;SDS011;28729;49.838;8.650;2023-11-21T23:20:49;4.80;;;2.88;;
43118;SDS011;28729;49.838;8.650;2023-11-21T23:24:51;6.78;;;3.30;;
43118;SDS011;28729;49.838;8.650;2023-11-21T23:28:53;6.90;;;3.75;;
43118;SDS011;28729;49.838;8.650;2023-11-21T23:32:55;6.10;;;3.50;;
43118;SDS011;28729;49.838;8.650;2023-11-21T23:36:57;7.25;;;3.38;;
43118;SDS011;28729;49.838;8.650;2023-11-21T23:40:59;6.78;;;2.90;;
43118;SDS011;28729;49.838;8.650;2023-11-21T23:45:01;5.95;;;2.88;;
43118;SDS011;28729;49.838;8.650;2023-11-21T23:49:04;5.70;;;2.85;;
43118;SDS011;28729;49.838;8.650;2023-11-21T23:53:06;6.15;;;3.67;;
43118;SDS011;28729;49.838;8.650;2023-11-21T23:57:08;7.28;;;3.35;;
